Time;durP1;ratioP1;P1;durP2;ratioP2;P2;SDS_P1;SDS_P2;PMS_P1;PMS_P2;Temp;Humidity;BMP_temperature;BMP_pressure;BME280_temperature;BME280_humidity;BME280_pressure;Samples;Min_cycle;Max_cycle;Signal;HPM_P1;HPM_P2
2022/12/22 03:26:24;;;;;;;3.10;2.55;;;;;;;1.46;98.47;147689.72;5124191;27;20034;-64
2022/12/22 03:28:49;;;;;;;3.72;2.83;;;;;;;1.54;98.13;147710.09;5104974;28;20043;-64
2022/12/22 03:31:15;;;;;;;4.03;3.35;;;;;;;1.57;98.37;147715.19;5102600;28;20020;-64
2022/12/22 03:33:40;;;;;;;5.10;3.15;;;;;;;1.53;98.05;147707.53;5113410;28;20225;-63
2022/12/22 03:36:07;;;;;;;3.60;3.30;;;;;;;1.58;98.22;147719.00;5119385;28;20024;-63
2022/12/22 03:38:33;;;;;;;3.67;3.35;;;;;;;1.65;98.20;147735.56;5103349;28;20036;-62
2022/12/22 03:40:59;;;;;;;4.20;3.30;;;;;;;1.57;98.13;147716.47;5103548;28;20016;-63
2022/12/22 03:46:30;;;;;;;6.53;3.33;;;;;;;1.68;98.31;147743.19;5110447;28;20193;-62
2022/12/22 03:49:08;;;;;;;4.80;3.00;;;;;;;1.55;98.01;147712.66;5115091;28;20027;-62
2022/12/22 03:51:42;;;;;;;4.32;3.55;;;;;;;1.57;98.29;147716.47;5114968;28;20031;-61
2022/12/22 03:54:10;;;;;;;3.50;3.20;;;;;;;1.59;98.55;147720.28;5108114;28;20090;-62
2022/12/22 03:56:36;;;;;;;5.13;3.60;;;;;;;1.55;98.49;147712.66;5123463;28;20031;-62
2022/12/22 03:59:02;;;;;;;4.35;3.60;;;;;;;1.53;98.72;147707.53;5103720;28;20032;-63
2022/12/22 04:01:28;;;;;;;6.22;4.13;;;;;;;1.53;98.68;147706.28;5119377;28;20212;-62
2022/12/22 04:03:54;;;;;;;5.40;3.78;;;;;;;1.61;98.86;147726.66;5112757;28;20058;-63
2022/12/22 04:06:19;;;;;;;4.00;3.60;;;;;;;1.61;98.51;147725.38;5109426;28;20038;-62
2022/12/22 04:08:45;;;;;;;4.70;3.97;;;;;;;1.63;98.60;147730.47;5121205;28;20020;-62
2022/12/22 04:14:10;;;;;;;8.10;4.47;;;;;;;1.65;98.54;147736.81;5090666;28;20061;-62
2022/12/22 04:16:35;;;;;;;4.93;3.90;;;;;;;1.68;98.50;147744.50;5112406;28;20062;-62
2022/12/22 04:19:01;;;;;;;5.90;4.38;;;;;;;1.69;98.33;147745.75;5111509;28;20388;-62
2022/12/22 04:21:27;;;;;;;3.88;3.47;;;;;;;1.64;98.50;147733.00;5110275;28;20023;-61
2022/12/22 04:23:53;;;;;;;5.15;4.40;;;;;;;1.59;98.63;147720.28;5115610;28;20030;-62
2022/12/22 04:26:20;;;;;;;7.35;4.70;;;;;;;1.67;98.42;147741.94;5102852;28;20027;-62
2022/12/22 04:28:46;;;;;;;5.55;5.03;;;;;;;1.65;98.92;147736.81;5103089;28;20073;-60
2022/12/22 04:31:12;;;;;;;6.85;5.07;;;;;;;1.62;98.91;147729.19;5104333;28;20220;-61
2022/12/22 04:33:38;;;;;;;5.38;4.82;;;;;;;1.69;98.38;147745.75;5115834;28;20028;-61
2022/12/22 04:36:04;;;;;;;7.10;5.18;;;;;;;1.65;98.53;147736.81;5116353;28;20252;-61
2022/12/22 04:38:29;;;;;;;7.25;4.80;;;;;;;1.66;98.04;147738.13;5111850;28;20322;-62
2022/12/22 04:40:55;;;;;;;6.88;4.80;;;;;;;1.68;98.46;147743.19;5106738;28;20039;-61
2022/12/22 04:43:21;;;;;;;6.00;4.65;;;;;;;1.58;98.20;147717.72;5106958;28;20036;-62
2022/12/22 04:45:50;;;;;;;7.43;5.07;;;;;;;1.66;98.44;147738.13;5111922;28;20358;-62
2022/12/22 04:48:16;;;;;;;6.00;4.68;;;;;;;1.68;98.40;147743.19;5113286;28;20311;-61
2022/12/22 04:50:41;;;;;;;6.32;4.80;;;;;;;1.71;98.39;147750.81;5109320;28;20023;-62
2022/12/22 04:53:07;;;;;;;8.40;4.93;;;;;;;1.73;98.23;147755.94;5106876;28;20193;-61
2022/12/22 04:55:33;;;;;;;8.77;5.18;;;;;;;1.71;98.26;147750.81;5106979;28;20324;-62
2022/12/22 04:57:58;;;;;;;8.23;5.45;;;;;;;1.71;97.97;147750.81;5109823;28;20055;-61
2022/12/22 05:00:24;;;;;;;6.10;4.70;;;;;;;1.71;98.22;147750.81;5106591;28;20040;-60
2022/12/22 05:02:51;;;;;;;9.15;5.38;;;;;;;1.63;98.25;147730.47;5108875;28;20126;-61
2022/12/22 05:05:17;;;;;;;5.80;4.75;;;;;;;1.69;97.79;147745.75;5116341;28;20170;-61
2022/12/22 05:07:42;;;;;;;7.75;5.47;;;;;;;1.69;98.06;147747.00;5116546;28;20031;-60
2022/12/22 05:10:09;;;;;;;8.95;5.35;;;;;;;1.70;97.95;147749.56;5113062;28;20189;-60
2022/12/22 05:15:19;;;;;;;5.88;4.80;;;;;;;1.62;98.54;147729.19;5114036;28;20098;-62
2022/12/22 05:17:45;;;;;;;7.50;5.93;;;;;;;1.63;98.30;147730.47;5122808;28;20027;-61
2022/12/22 05:20:10;;;;;;;9.52;5.60;;;;;;;1.68;98.10;147744.50;5118614;28;20031;-60
2022/12/22 05:22:36;;;;;;;7.78;5.40;;;;;;;1.67;98.29;147741.94;5116365;28;20032;-61
2022/12/22 05:25:02;;;;;;;6.18;5.55;;;;;;;1.71;98.56;147750.81;5116512;28;20035;-62
2022/12/22 05:27:28;;;;;;;7.90;5.78;;;;;;;1.73;98.15;147757.19;5115567;28;20027;-61
2022/12/22 05:29:53;;;;;;;9.40;5.97;;;;;;;1.71;98.38;147750.81;5114635;28;20061;-62
2022/12/22 05:32:19;;;;;;;7.55;5.65;;;;;;;1.64;98.17;147734.28;5114464;28;20080;-61
2022/12/22 05:34:44;;;;;;;10.07;6.43;;;;;;;1.66;98.27;147739.38;5115886;28;20023;-62
2022/12/22 05:37:10;;;;;;;6.93;6.18;;;;;;;1.76;97.89;147762.31;5114816;28;20024;-61
2022/12/22 05:39:35;;;;;;;8.82;6.28;;;;;;;1.69;97.83;147747.00;5116854;28;20043;-62
2022/12/22 05:42:01;;;;;;;9.20;6.35;;;;;;;1.79;97.83;147769.94;5116032;28;20070;-61
2022/12/22 05:44:27;;;;;;;9.80;7.25;;;;;;;1.78;97.78;147767.38;5113149;28;20039;-61
2022/12/22 05:46:52;;;;;;;9.57;6.88;;;;;;;1.76;98.11;147763.56;5115043;28;20034;-62
2022/12/22 05:49:18;;;;;;;10.32;6.82;;;;;;;1.73;98.07;147757.19;5114384;28;20044;-63
2022/12/22 05:51:44;;;;;;;9.57;6.70;;;;;;;1.71;97.81;147750.81;5113263;28;20141;-62
2022/12/22 05:54:10;;;;;;;11.80;7.10;;;;;;;1.68;97.59;147743.19;5115289;28;20055;-61
2022/12/22 05:56:35;;;;;;;12.02;7.50;;;;;;;1.78;97.81;147768.69;5114013;28;20032;-62
2022/12/22 05:59:01;;;;;;;12.52;9.02;;;;;;;1.83;97.19;147780.13;5114946;27;20216;-61
2022/12/22 06:01:27;;;;;;;8.85;7.30;;;;;;;1.84;97.63;147783.94;5113484;28;20148;-62
2022/12/22 06:03:52;;;;;;;8.13;7.25;;;;;;;1.77;97.58;147766.13;5105629;28;20031;-67
2022/12/22 06:06:18;;;;;;;10.57;8.27;;;;;;;1.87;97.57;147791.59;5117509;28;20022;-64
2022/12/22 06:08:43;;;;;;;8.57;7.10;;;;;;;1.88;97.45;147792.84;5118944;28;20039;-64
2022/12/22 06:11:09;;;;;;;10.68;7.35;;;;;;;1.70;97.70;147748.31;5125841;27;20035;-65
2022/12/22 06:13:35;;;;;;;9.18;7.20;;;;;;;1.78;97.52;147768.69;5110505;28;20235;-65
2022/12/22 06:16:00;;;;;;;8.45;7.15;;;;;;;1.66;97.69;147739.38;5112180;28;20194;-64
2022/12/22 06:18:27;;;;;;;11.10;7.68;;;;;;;1.76;97.97;147762.31;5107899;28;20240;-64
2022/12/22 06:20:53;;;;;;;10.38;8.10;;;;;;;1.82;97.94;147777.56;5106168;28;20032;-64
2022/12/22 06:23:19;;;;;;;9.90;8.15;;;;;;;1.89;97.41;147795.41;5109217;28;20027;-64
2022/12/22 06:25:59;;;;;;;7.95;7.15;;;;;;;1.88;96.64;147794.16;5122071;28;20027;-65
2022/12/22 06:28:25;;;;;;;8.15;6.97;;;;;;;1.85;97.06;147786.50;5110030;28;20028;-64
2022/12/22 06:30:51;;;;;;;10.95;7.55;;;;;;;1.83;97.07;147780.13;5108295;28;20193;-65
2022/12/22 06:33:16;;;;;;;8.57;7.15;;;;;;;1.86;97.34;147787.78;5104725;28;20047;-65
2022/12/22 06:35:42;;;;;;;11.63;7.60;;;;;;;1.76;97.08;147763.56;5104864;28;20020;-64
2022/12/22 06:38:07;;;;;;;10.80;7.05;;;;;;;1.85;97.23;147786.50;5120610;28;20068;-64
2022/12/22 06:40:33;;;;;;;10.70;7.57;;;;;;;1.79;97.28;147771.19;5112854;28;20032;-63
2022/12/22 06:43:07;;;;;;;9.50;8.25;;;;;;;1.87;96.83;147790.31;5117613;28;20034;-64
2022/12/22 06:45:39;;;;;;;11.55;7.88;;;;;;;1.79;96.86;147769.94;5117797;28;20043;-63
2022/12/22 06:48:06;;;;;;;10.75;8.77;;;;;;;1.89;97.10;147795.41;5104279;28;20032;-63
2022/12/22 06:50:32;;;;;;;8.70;7.78;;;;;;;1.86;97.15;147789.03;5104557;28;20326;-64
2022/12/22 06:52:58;;;;;;;13.98;8.43;;;;;;;1.81;97.55;147776.31;5121925;28;20023;-64
2022/12/22 06:55:23;;;;;;;11.38;8.35;;;;;;;1.88;97.22;147794.16;5108824;28;20032;-64
2022/12/22 06:57:49;;;;;;;8.98;8.07;;;;;;;1.86;96.94;147789.03;5113370;28;20031;-65
2022/12/22 07:00:14;;;;;;;11.52;7.97;;;;;;;1.81;97.06;147775.03;5120737;28;20043;-65
2022/12/22 07:02:40;;;;;;;8.98;8.07;;;;;;;1.93;96.99;147805.59;5105833;28;20095;-65
2022/12/22 07:05:06;;;;;;;8.63;7.72;;;;;;;1.93;97.21;147804.34;5104755;28;20024;-65
2022/12/22 07:07:31;;;;;;;11.77;8.52;;;;;;;1.89;96.46;147795.41;5104170;28;20240;-65
2022/12/22 07:09:57;;;;;;;11.98;8.15;;;;;;;1.95;96.89;147810.66;5113879;28;20019;-65
2022/12/22 07:12:23;;;;;;;13.23;8.10;;;;;;;1.95;96.73;147810.66;5119013;28;20036;-65
2022/12/22 07:14:48;;;;;;;11.68;8.55;;;;;;;1.97;96.75;147814.53;5103820;28;20048;-65
2022/12/22 07:17:14;;;;;;;11.98;8.55;;;;;;;1.96;96.19;147811.97;5124522;28;20024;-65
2022/12/22 07:19:39;;;;;;;12.38;8.27;;;;;;;1.92;96.47;147801.78;5108692;28;20059;-66
2022/12/22 07:22:05;;;;;;;12.30;8.55;;;;;;;2.01;96.62;147824.69;5110212;28;20073;-65
2022/12/22 07:24:30;;;;;;;11.32;8.05;;;;;;;2.06;96.37;147837.44;5109814;28;20035;-65
2022/12/22 07:26:56;;;;;;;9.40;8.40;;;;;;;2.04;95.95;147832.34;5123246;28;20051;-64
2022/12/22 07:29:22;;;;;;;11.05;8.77;;;;;;;2.07;95.97;147840.00;5103693;28;20243;-65
2022/12/22 07:31:47;;;;;;;10.82;8.90;;;;;;;2.07;95.74;147840.00;5103621;28;20032;-65
2022/12/22 07:34:13;;;;;;;12.88;9.18;;;;;;;2.09;96.48;147843.81;5115527;28;20196;-65
2022/12/22 07:36:39;;;;;;;15.43;8.82;;;;;;;1.96;96.05;147813.22;5115855;28;20078;-65
2022/12/22 07:39:06;;;;;;;12.30;9.13;;;;;;;2.06;96.44;147837.44;5105775;28;20158;-64
2022/12/22 07:44:15;;;;;;;11.38;8.85;;;;;;;2.14;95.44;147856.53;5103485;28;20046;-65
2022/12/22 07:46:41;;;;;;;13.02;9.27;;;;;;;2.13;95.84;147855.25;5106698;28;20304;-66
2022/12/22 07:51:51;;;;;;;12.13;9.60;;;;;;;2.23;95.97;147879.47;5115273;28;20054;-65
2022/12/22 07:54:17;;;;;;;12.73;9.27;;;;;;;2.20;95.48;147873.09;5106834;28;20323;-65
2022/12/22 07:56:44;;;;;;;11.25;8.63;;;;;;;2.11;95.59;147848.88;5124174;28;20020;-65
2022/12/22 07:59:11;;;;;;;13.02;9.73;;;;;;;2.28;95.20;147890.91;5103811;28;20073;-65
2022/12/22 08:01:36;;;;;;;14.00;9.73;;;;;;;2.24;94.99;147883.28;5117977;28;20323;-65
2022/12/22 08:04:02;;;;;;;11.82;9.77;;;;;;;2.36;95.08;147911.31;5113646;28;20016;-65
2022/12/22 08:06:28;;;;;;;15.40;12.43;;;;;;;2.18;95.08;147866.72;5102633;28;20340;-65
2022/12/22 08:08:54;;;;;;;12.70;10.18;;;;;;;2.13;95.13;147855.25;5103415;28;20020;-64
2022/12/22 08:11:19;;;;;;;10.88;9.77;;;;;;;2.04;95.73;147832.34;5104062;28;20034;-65
2022/12/22 08:13:45;;;;;;;13.38;9.77;;;;;;;2.07;96.14;147840.00;5119066;28;20039;-65
2022/12/22 08:16:12;;;;;;;13.20;9.90;;;;;;;1.98;95.48;147818.34;5112503;28;20093;-64
2022/12/22 08:18:40;;;;;;;14.07;10.05;;;;;;;2.12;96.03;147851.44;5103888;28;20078;-65
2022/12/22 08:21:07;;;;;;;12.70;10.55;;;;;;;2.07;95.69;147840.00;5105010;28;20107;-65
2022/12/22 08:23:33;;;;;;;12.88;10.40;;;;;;;2.13;95.43;147855.25;5106760;28;20223;-65
2022/12/22 08:26:20;;;;;;;15.63;10.00;;;;;;;2.20;95.99;147871.84;5120919;28;20043;-65
2022/12/22 08:28:57;;;;;;;14.23;11.20;;;;;;;2.15;95.18;147860.38;5107270;28;20126;-66
2022/12/22 08:31:26;;;;;;;14.88;10.65;;;;;;;2.02;95.67;147827.22;5102540;28;20038;-65
2022/12/22 08:33:53;;;;;;;12.32;10.85;;;;;;;2.13;95.61;147855.25;5110266;28;20040;-66
2022/12/22 08:36:19;;;;;;;14.05;10.73;;;;;;;2.17;95.25;147864.19;5112801;28;20024;-65
2022/12/22 08:38:45;;;;;;;15.63;10.95;;;;;;;2.16;95.31;147862.91;5111607;28;20036;-66
2022/12/22 08:41:14;;;;;;;19.25;10.77;;;;;;;2.14;95.30;147857.81;5111949;28;20093;-66
2022/12/22 08:43:40;;;;;;;17.38;11.25;;;;;;;2.15;95.42;147860.38;5113250;28;20321;-66
2022/12/22 08:46:06;;;;;;;14.27;11.05;;;;;;;2.20;95.87;147873.09;5108368;28;20023;-65
2022/12/22 08:48:32;;;;;;;15.57;10.85;;;;;;;2.13;95.78;147854.00;5111413;28;20366;-65
2022/12/22 08:50:57;;;;;;;16.02;11.85;;;;;;;2.20;95.14;147871.84;5112436;28;20099;-66
2022/12/22 08:53:23;;;;;;;12.48;10.48;;;;;;;2.24;95.29;147882.03;5113685;28;20020;-64
2022/12/22 08:55:53;;;;;;;13.20;11.32;;;;;;;2.25;95.07;147884.53;5102635;28;20024;-65
2022/12/22 08:58:19;;;;;;;14.90;11.13;;;;;;;2.27;94.68;147888.34;5112834;28;20040;-64
2022/12/22 09:00:45;;;;;;;14.57;11.13;;;;;;;2.34;94.60;147907.50;5112899;28;20035;-64
2022/12/22 09:03:10;;;;;;;16.77;11.60;;;;;;;2.42;94.13;147926.59;5107851;28;20031;-65
2022/12/22 09:05:37;;;;;;;17.23;11.65;;;;;;;2.33;94.77;147904.94;5102645;28;20020;-65
2022/12/22 09:08:04;;;;;;;17.33;12.15;;;;;;;2.26;94.50;147885.84;5120425;28;20355;-64
2022/12/22 09:10:29;;;;;;;14.55;11.32;;;;;;;2.31;94.68;147898.56;5109579;28;20124;-64
2022/12/22 09:12:55;;;;;;;15.85;11.38;;;;;;;2.21;94.13;147875.66;5107672;28;20027;-65
2022/12/22 09:15:20;;;;;;;16.83;11.35;;;;;;;2.21;94.54;147875.66;5111603;28;20312;-65
2022/12/22 09:17:47;;;;;;;15.57;11.70;;;;;;;2.31;94.88;147898.56;5113945;28;20023;-65
2022/12/22 09:20:13;;;;;;;18.50;11.50;;;;;;;2.37;94.48;147913.88;5116424;28;20031;-64
2022/12/22 09:22:38;;;;;;;18.17;13.35;;;;;;;2.40;93.89;147921.50;5115727;28;20035;-66
2022/12/22 09:25:04;;;;;;;16.25;12.23;;;;;;;2.39;94.13;147920.25;5117342;28;20260;-65
2022/12/22 09:27:30;;;;;;;16.80;12.65;;;;;;;2.30;93.93;147896.03;5116225;28;20023;-64
2022/12/22 09:29:55;;;;;;;20.48;13.52;;;;;;;2.32;94.41;147902.38;5116343;28;20212;-65
2022/12/22 09:32:21;;;;;;;14.98;12.80;;;;;;;2.33;93.71;147904.94;5116736;28;20020;-65
2022/12/22 09:34:47;;;;;;;19.52;14.32;;;;;;;2.32;94.17;147901.13;5116809;28;20020;-64
2022/12/22 09:37:14;;;;;;;15.75;12.27;;;;;;;2.18;94.17;147866.72;5113842;27;20249;-65
2022/12/22 09:39:40;;;;;;;17.08;13.18;;;;;;;2.42;93.92;147926.59;5108537;28;20069;-65
2022/12/22 09:42:13;;;;;;;18.05;12.77;;;;;;;2.34;93.95;147907.50;5118812;28;20047;-65
2022/12/22 09:44:43;;;;;;;16.08;13.00;;;;;;;2.30;94.10;147896.03;5107731;28;20040;-64
2022/12/22 09:47:30;;;;;;;17.60;13.10;;;;;;;2.26;94.09;147885.84;5107553;28;20208;-65
2022/12/22 09:49:57;;;;;;;19.63;12.88;;;;;;;2.35;93.71;147910.06;5104642;28;20092;-65
2022/12/22 09:52:39;;;;;;;19.58;12.70;;;;;;;2.25;93.84;147884.53;5112686;28;20028;-65
2022/12/22 09:55:25;;;;;;;19.80;12.85;;;;;;;2.28;94.20;147892.22;5105560;28;20050;-65
2022/12/22 09:57:54;;;;;;;16.77;12.70;;;;;;;2.33;93.90;147903.69;5113023;28;20047;-66
2022/12/22 10:00:24;;;;;;;16.40;12.10;;;;;;;2.13;93.42;147855.25;5122567;28;20035;-66
2022/12/22 10:03:21;;;;;;;16.67;13.15;;;;;;;2.20;94.16;147871.84;5104466;28;20039;-65
2022/12/22 10:05:55;;;;;;;16.75;12.48;;;;;;;2.12;93.92;147851.44;5118078;28;20026;-65
2022/12/22 10:08:28;;;;;;;17.95;12.65;;;;;;;1.95;94.90;147809.41;5110824;28;20020;-64
2022/12/22 10:10:55;;;;;;;19.58;13.25;;;;;;;2.12;94.62;147852.69;5105605;28;20061;-65
2022/12/22 10:13:21;;;;;;;18.42;12.45;;;;;;;1.97;95.05;147814.53;5110461;28;20028;-65
2022/12/22 10:15:47;;;;;;;17.35;13.02;;;;;;;2.09;94.95;147845.06;5113461;28;20133;-66
2022/12/22 10:18:19;;;;;;;17.20;12.48;;;;;;;2.04;94.74;147832.34;5113408;28;20228;-66
2022/12/22 10:21:04;;;;;;;18.33;13.45;;;;;;;2.14;94.83;147857.81;5114957;28;20341;-66
2022/12/22 10:23:33;;;;;;;18.23;13.50;;;;;;;2.29;94.37;147893.47;5115699;28;20039;-65
2022/12/22 10:26:14;;;;;;;14.93;11.75;;;;;;;2.17;94.32;147865.47;5114620;28;20019;-65
2022/12/22 10:29:05;;;;;;;22.35;13.77;;;;;;;2.20;94.25;147871.84;5114100;28;20035;-66
2022/12/22 10:31:33;;;;;;;19.75;14.38;;;;;;;2.14;94.67;147856.53;5114776;28;20058;-66
2022/12/22 10:34:17;;;;;;;20.95;14.75;;;;;;;2.15;95.33;147860.38;5110323;28;20028;-65
2022/12/22 10:36:48;;;;;;;16.63;13.20;;;;;;;2.04;94.92;147832.34;5114600;28;20076;-65
2022/12/22 10:39:27;;;;;;;20.92;13.75;;;;;;;1.96;95.00;147813.22;5113625;28;20019;-66
2022/12/22 10:41:55;;;;;;;17.70;13.32;;;;;;;2.14;95.35;147857.81;5113617;28;20109;-66
2022/12/22 10:44:36;;;;;;;20.50;13.82;;;;;;;2.13;95.58;147855.25;5104060;28;20032;-66
2022/12/22 10:47:22;;;;;;;17.70;13.18;;;;;;;2.15;95.41;147859.06;5104597;28;20041;-66
2022/12/22 10:49:56;;;;;;;19.15;13.73;;;;;;;1.86;96.22;147787.78;5104805;28;20056;-66
2022/12/22 10:52:28;;;;;;;20.27;13.55;;;;;;;2.06;96.39;147837.44;5115473;28;20054;-66
2022/12/22 10:55:27;;;;;;;18.73;13.23;;;;;;;2.16;96.04;147862.91;5113610;28;20344;-65
2022/12/22 10:58:08;;;;;;;18.85;13.20;;;;;;;2.15;95.39;147860.38;5113574;28;20056;-65
2022/12/22 11:00:34;;;;;;;19.43;14.17;;;;;;;2.06;95.79;147838.69;5114698;28;20042;-65
2022/12/22 11:03:01;;;;;;;19.00;13.23;;;;;;;2.09;96.00;147843.81;5114520;28;20417;-65
2022/12/22 11:05:28;;;;;;;21.30;14.07;;;;;;;2.08;96.05;147842.50;5115424;28;20024;-65
2022/12/22 11:07:55;;;;;;;18.23;13.27;;;;;;;2.13;95.39;147854.00;5104235;28;20034;-66
2022/12/22 11:10:37;;;;;;;17.85;12.98;;;;;;;2.08;95.51;147842.50;5114984;28;20027;-65
2022/12/22 11:13:24;;;;;;;19.23;13.88;;;;;;;2.15;95.30;147859.06;5115241;28;20092;-66
2022/12/22 11:16:03;;;;;;;19.88;14.38;;;;;;;2.06;95.58;147838.69;5110828;28;20401;-65
2022/12/22 11:18:47;;;;;;;20.42;13.75;;;;;;;2.20;95.90;147873.09;5120373;27;20028;-65
2022/12/22 11:21:29;;;;;;;20.10;14.75;;;;;;;1.99;95.88;147819.59;5104970;28;20032;-66
2022/12/22 11:24:25;;;;;;;19.25;13.20;;;;;;;2.02;96.60;147827.22;5119207;28;20040;-65
2022/12/22 11:27:20;;;;;;;17.27;13.30;;;;;;;2.05;96.14;147834.88;5104061;28;20346;-66
2022/12/22 11:30:12;;;;;;;16.95;13.15;;;;;;;2.27;95.87;147888.34;5104378;28;20028;-66
2022/12/22 11:32:47;;;;;;;;;;;;;;;2.18;95.64;147868.00;5095884;28;20048;-67
2022/12/22 11:35:26;;;;;;;17.63;12.70;;;;;;;2.09;95.56;147843.81;5110903;28;19914;-65
2022/12/22 11:38:17;;;;;;;18.17;12.52;;;;;;;2.04;96.09;147833.63;5117834;28;20384;-66
2022/12/22 11:40:49;;;;;;;19.05;13.82;;;;;;;1.97;96.09;147814.53;5115077;28;20090;-66
2022/12/22 11:43:29;;;;;;;22.20;13.10;;;;;;;2.17;96.42;147865.47;5114879;28;20043;-66
2022/12/22 11:46:19;;;;;;;21.27;14.38;;;;;;;2.21;96.05;147874.41;5116949;28;20028;-66
2022/12/22 11:48:48;;;;;;;19.65;13.57;;;;;;;2.15;95.83;147859.06;5103376;28;20054;-65
2022/12/22 11:51:33;;;;;;;19.02;13.55;;;;;;;2.07;95.94;147841.25;5102732;28;20078;-66
2022/12/22 11:53:58;;;;;;;16.38;11.68;;;;;;;2.20;95.83;147873.09;5123861;28;20102;-66
2022/12/22 11:56:39;;;;;;;23.25;14.90;;;;;;;2.13;96.00;147855.25;5123532;28;20024;-66
2022/12/22 11:59:31;;;;;;;21.23;14.07;;;;;;;2.21;96.09;147875.66;5123791;27;20362;-66
2022/12/22 12:02:34;;;;;;;17.92;12.70;;;;;;;2.19;95.63;147870.53;5108269;28;20043;-65
2022/12/22 12:05:06;;;;;;;21.67;14.68;;;;;;;2.13;96.39;147855.25;5105102;28;20027;-64
2022/12/22 12:07:53;;;;;;;23.20;15.20;;;;;;;2.05;96.43;147834.88;5108155;28;20035;-65
2022/12/22 12:10:53;;;;;;;22.35;14.07;;;;;;;2.19;96.65;147870.53;5112997;28;20069;-65
2022/12/22 12:13:32;;;;;;;26.75;14.18;;;;;;;2.02;96.89;147827.22;5109696;28;20036;-64
2022/12/22 12:16:17;;;;;;;19.67;13.70;;;;;;;1.94;97.97;147806.84;5110538;28;20047;-64
2022/12/22 12:18:58;;;;;;;23.83;14.10;;;;;;;2.17;96.47;147864.19;5107815;28;20068;-64
2022/12/22 12:21:26;;;;;;;21.00;14.07;;;;;;;2.20;96.77;147871.84;5106270;28;20059;-64
2022/12/22 12:24:03;;;;;;;21.83;13.60;;;;;;;2.19;96.02;147869.28;5108072;28;20043;-64
2022/12/22 12:26:43;;;;;;;20.85;13.73;;;;;;;2.04;96.63;147832.34;5101940;28;20020;-65
2022/12/22 12:29:23;;;;;;;18.13;12.45;;;;;;;2.09;96.55;147845.06;5119970;28;20075;-64
2022/12/22 12:32:14;;;;;;;17.58;11.80;;;;;;;2.14;96.47;147856.53;5114532;28;20141;-64
2022/12/22 12:34:45;;;;;;;18.35;12.13;;;;;;;2.01;96.40;147824.69;5118567;28;20031;-64
2022/12/22 12:37:13;;;;;;;15.27;11.73;;;;;;;2.03;96.81;147831.06;5114723;28;20213;-66
2022/12/22 12:40:14;;;;;;;16.60;11.23;;;;;;;2.05;96.74;147834.88;5109801;28;20031;-65
2022/12/22 12:42:43;;;;;;;16.60;11.32;;;;;;;1.94;96.94;147806.84;5050329;28;20045;-64
2022/12/22 12:45:32;;;;;;;19.42;12.27;;;;;;;2.01;97.40;147825.97;5104032;28;20023;-64
2022/12/22 12:48:19;;;;;;;16.10;11.15;;;;;;;1.93;97.19;147804.34;5112983;28;20051;-65
2022/12/22 12:50:49;;;;;;;17.42;12.27;;;;;;;1.81;97.11;147776.31;5116636;28;20031;-65
2022/12/22 12:53:17;;;;;;;18.75;12.27;;;;;;;1.87;97.39;147791.59;5108829;28;20304;-64
2022/12/22 12:55:48;;;;;;;15.82;11.10;;;;;;;1.93;97.38;147804.34;5109806;28;20047;-64
2022/12/22 12:58:43;;;;;;;14.40;10.98;;;;;;;1.97;97.38;147815.78;5119576;28;20092;-65
2022/12/22 13:01:18;;;;;;;14.00;11.45;;;;;;;1.92;96.94;147801.78;5112836;28;20028;-64
2022/12/22 13:03:45;;;;;;;18.52;12.13;;;;;;;2.01;96.87;147824.69;5121633;28;20032;-65
2022/12/22 13:06:46;;;;;;;17.42;11.38;;;;;;;1.93;96.14;147805.59;5106552;28;20301;-65
2022/12/22 13:09:29;;;;;;;15.55;9.98;;;;;;;1.82;96.15;147778.84;5111180;28;20354;-65
2022/12/22 13:11:55;;;;;;;13.75;9.80;;;;;;;1.91;95.75;147800.53;5113958;28;20036;-64
2022/12/22 13:14:55;;;;;;;12.43;8.65;;;;;;;2.01;95.57;147824.69;5116165;28;20103;-64
2022/12/22 13:17:48;;;;;;;14.23;9.43;;;;;;;1.90;95.14;147799.22;5120201;28;20043;-65
2022/12/22 13:20:19;;;;;;;13.00;9.30;;;;;;;1.83;95.06;147780.13;5123158;28;20304;-64
2022/12/22 13:22:45;;;;;;;12.07;8.93;;;;;;;1.79;95.01;147769.94;5123492;28;20114;-65
2022/12/22 13:25:17;;;;;;;12.45;9.10;;;;;;;1.85;95.44;147786.50;5118498;28;20265;-64
2022/12/22 13:27:43;;;;;;;10.88;7.90;;;;;;;1.82;94.44;147778.84;5110427;28;20020;-65
2022/12/22 13:30:15;;;;;;;11.77;7.50;;;;;;;1.76;94.88;147763.56;5126811;28;20041;-64
2022/12/22 13:32:42;;;;;;;;;;;;;;;1.91;94.54;147800.53;5106746;28;20091;-65
2022/12/22 13:35:24;;;;;;;11.82;8.20;;;;;;;1.81;94.61;147775.03;5122177;28;19916;-65
2022/12/22 13:37:52;;;;;;;11.27;7.72;;;;;;;1.93;94.20;147805.59;5112347;28;20073;-64
2022/12/22 13:40:18;;;;;;;14.52;8.60;;;;;;;1.90;94.09;147797.97;5114998;28;20095;-65
2022/12/22 13:42:50;;;;;;;12.02;7.70;;;;;;;1.90;94.22;147799.22;5118728;28;20049;-63
2022/12/22 13:45:31;;;;;;;12.55;8.27;;;;;;;1.92;93.77;147801.78;5125748;28;20062;-65
2022/12/22 13:47:59;;;;;;;9.77;7.55;;;;;;;1.83;94.27;147780.13;5124910;28;20038;-65
2022/12/22 13:50:33;;;;;;;14.32;8.05;;;;;;;1.93;94.23;147804.34;5107199;28;20040;-65
2022/12/22 13:53:01;;;;;;;10.43;8.10;;;;;;;1.84;93.79;147782.66;5116316;28;20121;-65
2022/12/22 13:55:31;;;;;;;13.18;8.52;;;;;;;1.93;93.49;147805.59;5106359;28;20039;-66
2022/12/22 13:58:06;;;;;;;11.95;7.82;;;;;;;1.86;93.78;147787.78;5114934;28;20032;-64
2022/12/22 14:00:32;;;;;;;12.82;8.27;;;;;;;1.90;93.86;147799.22;5105385;28;20315;-63
2022/12/22 14:02:58;;;;;;;11.63;8.02;;;;;;;1.96;93.75;147811.97;5105672;28;20024;-64
2022/12/22 14:05:30;;;;;;;12.85;8.30;;;;;;;1.87;93.59;147790.31;5123019;28;20026;-64
2022/12/22 14:08:00;;;;;;;11.57;8.60;;;;;;;1.93;94.17;147804.34;5111634;28;20258;-64
2022/12/22 14:10:36;;;;;;;14.27;9.07;;;;;;;1.82;93.72;147778.84;5105071;28;20095;-64
2022/12/22 14:13:06;;;;;;;13.38;8.63;;;;;;;1.97;93.87;147814.53;5112181;28;20046;-64
2022/12/22 14:15:32;;;;;;;11.63;8.05;;;;;;;1.81;93.83;147776.31;5123106;28;20039;-64
2022/12/22 14:17:59;;;;;;;10.00;8.30;;;;;;;1.82;93.94;147778.84;5105549;28;20042;-64
2022/12/22 14:20:28;;;;;;;11.57;9.10;;;;;;;1.79;93.64;147771.19;5123044;28;20102;-65
2022/12/22 14:22:53;;;;;;;10.90;8.10;;;;;;;1.84;94.24;147783.94;5122940;28;20027;-64
2022/12/22 14:25:28;;;;;;;13.48;8.93;;;;;;;1.84;93.86;147782.66;5119498;28;20321;-64
2022/12/22 14:27:55;;;;;;;10.35;7.40;;;;;;;1.70;94.55;147749.56;5115065;28;20032;-64
2022/12/22 14:30:24;;;;;;;10.25;7.82;;;;;;;1.76;94.13;147763.56;5113106;28;21069;-64
2022/12/22 14:32:53;;;;;;;12.27;8.40;;;;;;;1.76;94.28;147763.56;5114675;28;20162;-64
2022/12/22 14:35:19;;;;;;;11.23;9.00;;;;;;;1.87;94.20;147791.59;5105791;28;20016;-64
2022/12/22 14:37:49;;;;;;;12.95;8.93;;;;;;;1.83;94.01;147780.13;5117473;28;20076;-64
2022/12/22 14:40:33;;;;;;;13.27;9.65;;;;;;;1.92;93.53;147803.03;5117261;28;20072;-64
2022/12/22 14:43:02;;;;;;;11.75;8.85;;;;;;;1.84;93.77;147782.66;5110974;28;20024;-63
2022/12/22 14:45:27;;;;;;;14.88;8.75;;;;;;;1.84;93.44;147783.94;5122577;28;20030;-65
2022/12/22 14:47:54;;;;;;;12.80;9.02;;;;;;;1.92;93.54;147803.03;5104697;28;20040;-64
2022/12/22 14:50:28;;;;;;;11.38;9.32;;;;;;;1.93;93.98;147804.34;5107947;28;20248;-64
2022/12/22 14:52:55;;;;;;;12.73;9.15;;;;;;;1.93;93.59;147805.59;5110438;28;20059;-65
2022/12/22 14:55:28;;;;;;;13.05;9.75;;;;;;;1.96;93.86;147811.97;5106598;28;20352;-64
2022/12/22 14:57:56;;;;;;;10.90;9.15;;;;;;;1.94;94.04;147806.84;5109297;28;20054;-63
2022/12/22 15:00:22;;;;;;;15.77;9.57;;;;;;;2.06;93.53;147837.44;5124244;28;20062;-63
2022/12/22 15:02:59;;;;;;;13.63;9.68;;;;;;;2.04;93.46;147833.63;5104383;28;20166;-65
2022/12/22 15:05:37;;;;;;;14.35;9.55;;;;;;;1.93;93.83;147804.34;5104006;28;20028;-65
2022/12/22 15:08:05;;;;;;;16.20;9.70;;;;;;;1.97;93.35;147815.78;5118876;28;20308;-64
2022/12/22 15:10:43;;;;;;;14.20;9.45;;;;;;;1.96;94.14;147813.22;5114239;28;20095;-65
2022/12/22 15:13:20;;;;;;;14.20;9.68;;;;;;;1.93;93.46;147805.59;5107878;28;20031;-64
2022/12/22 15:15:45;;;;;;;12.57;10.50;;;;;;;1.94;93.53;147806.84;5108681;28;20044;-66
2022/12/22 15:18:14;;;;;;;15.93;10.05;;;;;;;1.80;93.77;147773.75;5110938;28;20090;-68
2022/12/22 15:20:39;;;;;;;13.48;10.20;;;;;;;1.89;93.66;147796.66;5116657;28;20257;-65